KDTW

Detroit Metropolitan Wayne County Airport

Detroit, Michigan, USA
METAR KDTW 221653Z 27006KT 3SM HZ SCT015 BKN060 OVC080 21/16 A2999 RMK AO2 SFC VIS 4 SLP153 T02110161
Observed Flight Rules
May-22 @ 16:53 UTC (an hour ago) Marginal Visual Flight Rules
Wind Visibility Clouds Conditions
270° at 6 knots 3 miles
  • Scattered at 1,500' AGL
  • Broken at 6,000' AGL
  • Overcast at 8,000' AGL
  • Haze
Temperatures Readings
Current 21°C / 70°F
Dewpoint 16°C / 61°F
Humidity 73%
Altimeter 29.99" Hg
Pressure 1015.3 hPa
Elevation 195
METAR KDTW 221653Z 27006KT 3SM HZ SCT015 BKN060 OVC080 21/16 A2999 RMK AO2 SFC VIS 4 SLP153 T02110161
Observed Flight Rules
May-22 @ 16:53 UTC
(an hour ago)
MVFR
Wind Visibility
270° at 6 knots 3 miles
Clouds
  • Scattered at 1,500' AGL
  • Broken at 6,000' AGL
  • Overcast at 8,000' AGL
Conditions
  • Haze
Temperature Dewpoint
21°C / 70°F 16°C / 61°F
Humidity Altimeter Pressure
73% 29.99" Hg 1015.3 hPa